Extreme weather reports worldwide

Low visibility

Station
 
Location
 
Name
 
Wind
Knots
Gust
Knots
Vis
SM
Temp/Dew
C
Baro
inHg
METAR
 
EHQE 13 0.06 15/15 29.91 EHQE 171855Z AUTO 27013KT 0100 +DZ OVC000 15/15 Q1013
EHKV 7 0.12 15/14 29.91 EHKV 171855Z AUTO VRB07KT 0200 FG VV000 15/14 Q1013
YBX CYBX Lourdes-De-Blanc-Sablon, CA Lourdes de Blanc Sablon Airport 10 0.13 9/9 29.67 CYBX 171800Z 21010KT 1/8SM -DZ FG VV002 09/09 A2967 RMK FG8 SLP052
EHFD 0.16 17/16 29.88 EHFD 171855Z AUTO /////KT 0250 -RADZ SCT000/// BKN003/// BKN004/// 17/16 Q1012
MKY YBMK Mackay, AU Mackay Airport 0 0.16 19/19 29.94 YBMK 171800Z AUTO 00000KT 0250 FG OVC002 19/19 Q1014

Station
 
Location
 
Name
 
Wind
Knots
Gust
Knots
Vis
SM
Temp/Dew
C
Baro
inHg
METAR
 
UUS UHSS Yuzhno-Sakhalinsk, RU Yuzhno-Sakhalinsk Airport 2 0.16 9/9 29.76 UHSS 171800Z 09001MPS 0250 0200N R01/0450N FG VV002 09/09 Q1008 R01/CLRD70 NOSIG RMK QBB070 MT OBSC QFE754/1006
ENLE 16 0.19 14/13 29.85 ENLE 171850Z 28016KT 0300 FG VV002 14/13 Q1011 W14/S3
LIVR 9 0.19 12/11 30.30 LIVR 171755Z 13009KT 0300 FG VV/// 12/11 Q1026 RMK MON INVIS VIS MIN 0300
KQEQ 2 0.25 19/19 29.65 KQEQ 171900Z AUTO 21002KT M0400 -SHRA FG OVC005 19/19 A2965 RMK A02 TSNO
TNC PATC Tin City, US Tin City Long Range Radar Station Airport 4 0.25 6/6 30.10 PATC 171855Z AUTO 05004KT 1/4SM BCFG VV003 06/06 A3010 RMK AO2 SLP196 T00640068
SHH PASH Shishmaref, US Shishmaref Airport 5 0.25 2/2 30.13 PASH 171756Z AUTO 26005KT 1/4SM FG OVC003 02/02 A3013 RMK AO2 SLP204 T00220022 10050 20006 51005 FZRANO
PHO PAPO Point Hope, US Point Hope Airport 7 0.25 1/1 30.10 PAPO 171756Z AUTO 14007KT 1/4SM FG OVC002 02/01 A3010 RMK AO2 SLP192 60000 T00170011 10022 20011 50005 FZRANO
WAA PAIW Wales, US Wales Airport 3 0.25 5/5 30.13 PAIW 171756Z AUTO 21003KT M1/4SM FG OVC002 06/06 A3013 RMK AO2 SLP205 60000 T00560056 10061 20050 53005
EBH DAOY El Bayadh, DZ El Bayadh Airport 16 27 0.31 27/4 30.03 DAOY 171800Z 19016G27KT 0500 TS BLSA FEW026CB SCT030 27/04 Q1017
LEH LFOH Le Havre/Octeville, FR Le Havre Octeville Airport 5 0.4 17/16 29.88 LFOH 171830Z AUTO 36005KT 330V050 0650 0550 R22/1000D FG VV/// ///TCU 17/16 Q1012 TEMPO 2000 TSRA BECMG SCT020
DMM OEDF Ad Dammam, SA King Fahd International Airport 16 0.43 38/8 29.56 OEDF 171900Z 33016KT 0700 BLDU NSC 38/08 Q1001 NOSIG
YIK CYIK Ivujivik, CA Ivujivik Airport 5 0.5 1/0 29.59 CYIK 171850Z 30005KT 1/2SM -DZ FG VV002 01/00 A2959 RMK FG8 SLP024
HOF OEAH SA Al Ahsa Airport 20 0.56 39/-3 29.59 OEAH 171800Z 33020KT 0900 BLSA NSC 39/M03 Q1002 NOSIG
PPP YBPN Proserpine, AU Proserpine Whitsunday Coast Airport 3 0.62 16/16 29.94 YBPN 171800Z AUTO 35003KT 1000 BR BKN001 OVC005 16/16 Q1014
ELU DAUO Guemar, DZ Guemar Airport 18 0.62 38/6 29.79 DAUO 171800Z 08018KT 1000 DRSA SCT040 SCT100 38/06 Q1009
BAH OBBI Manama, BH Bahrain International Airport 20 0.75 34/20 29.53 OBBI 171900Z 31020KT 1200 R12L/1100 R30R/1300 DU VV/// 34/20 Q1000 NOSIG
DOL LFRG Deauville, FR Deauville-Saint-Gatien Airport 5 0.75 17/16 29.88 LFRG 171830Z AUTO 27005KT 1200 1000 R30/1700D BR VV/// ///TCU 17/16 Q1012 TEMPO 4000 SHRA BKN008 SCT050CB
DHA OEDR SA King Abdulaziz Air Base 19 0.81 38/8 29.50 OEDR 171900Z 33019KT 1300 BLDU NSC 38/08 Q0999 NOSIG
OVD LEAS Ranón, ES Asturias Airport 7 17 0.93 16/16 29.88 LEAS 171830Z 04007G17KT 350V100 1500 RA VV001 16/16 Q1012 TEMPO RA
PHC DNPO Port Harcourt, NG Port Harcourt International Airport 4 0.93 25/24 29.91 DNPO 171800Z 22004KT 1500 TSRA BKN007 FEW018CB 25/24 Q1013 BECMG 3000
HHE RJSH JP Hachinohe Airport 3 0.99 14/14 29.70 RJSH 171844Z 28003KT 160V300 1600 BR FEW001 SCT002 OVC005 14/14 Q1006 RMK 1ST001 4ST002 8ST005 A2972
KQAJ 16 0.99 34/-1 29.63 KQAJ 171757Z 30016KT 1600 HZ CLR 34/M01 A2963 RMK SLP041 WND DATA ESTMD T03411015 10408 20341 52015
QLR LPMR PT Monte Real Air Base 11 1.12 16/15 29.91 LPMR 171800Z 33011KT 1800 -DZ BR FEW005 BKN007 BKN012 16/15 Q1013
BEL SBBE Belém, BR Val de Cans/Júlio Cezar Ribeiro International Airport 16 31 1.24 23/22 29.82 SBBE 171900Z 29016G31KT 2000 TSRA BKN010 FEW018CB 23/22 Q1010 RERA
JUJ SASJ San Salvador de Jujuy, AR Gobernador Horacio Guzman International Airport 5 1.24 6/6 30.21 SASJ 171900Z 09005KT 2000 -DZ BR SCT008 OVC050 06/06 Q1023
KQER 1 1.24 19/18 29.56 KQER 171900Z AUTO 12001KT 2000 -SHRA OVC014 19/18 A2956 RMK A02 TSNO
KQEY 2 1.24 19/19 29.36 KQEY 171850Z AUTO 30002KT 2000 -RA BR FEW004 SCT009 OVC022 19/19 A2936 RMK A02 TSNO
ICN RKSI Seoul, KR Incheon International Airport 8 1.24 18/18 29.62 RKSI 171830Z 23008KT 2000 -RA BR SCT003 BKN020 OVC100 18/18 Q1003 NOSIG
SVD TVSA Kingstown, VC Argyle International Airport 8 1.24 24/23 30.00 TVSA 171800Z 18008KT 150V220 2000 TSRA FEW006CB BKN008 24/23 Q1016 TEMPO SHRA
CXJ SBCX Caxias Do Sul, BR Hugo Cantergiani Regional Airport 6 1.24 6/5 30.21 SBCX 171800Z 18006KT 2000 BR OVC004 06/05 Q1023
QJB OEJB Jubail, SA Jubail Airport 18 28 1.24 37/12 29.56 OEJB 171800Z AUTO 35018G28KT 2000 BLDU ///////// 37/12 Q1001 NOSIG
CBH DAOR Béchar, DZ Béchar Boudghene Ben Ali Lotfi Airport 27 1.24 / 29.82 DAOR 171800Z 24027KT 2000 BLDU SCT033 SCT233 38/// Q1010
YUX CYUX Hall Beach, CA Hall Beach Airport 11 1.25 1/1 29.52 CYUX 171838Z 35011KT 1 1/4SM -RA BR OVC003 01/01 A2952 RMK FG2ST6 SLP998
BOM VABB Mumbai, IN Chhatrapati Shivaji International Airport 3 1.37 26/26 29.62 VABB 171830Z 15003KT 2200 HZ FEW010 SCT018 FEW030CB OVC080 26/26 Q1003 TEMPO 1500 SHRA
CCU VECC Kolkata, IN Netaji Subhash Chandra Bose International Airport 3 1.49 26/25 29.53 VECC 171900Z 16003KT 2400 -RA SCT010 BKN015 FEW025CB OVC080 26/25 Q1000 TEMPO TL2100 1500 TSRA
KQFT 1 1.49 20/19 29.60 KQFT 171900Z AUTO 16001KT 2400 -SHRA OVC010 20/19 A2960 RMK A02 TSNO
NZSP AQ South Pole Station Airport 10 1.49 -57/ 28.60 NZSP 171750Z 35010KT 2400 IC BR SCT030 M57/ A2860 RMK SKWY WNDS ESTMD CLN AIR 01003KT ALL WNDS GRID
SCSN Santo Domingo, CL Santo Domingo Airport 4 1.55 11/11 30.03 SCSN 171900Z 24004KT 200V300 2500 BR OVC005 11/11 Q1017
KWI OKBK Kuwait City, KW Kuwait International Airport 19 1.55 34/5 29.59 OKBK 171900Z 32019KT 2500 BLDU NSC 34/05 Q1002 NOSIG
BQH EGKB London, GB London Biggin Hill Airport 5 1.55 17/16 29.91 EGKB 171850Z 02005KT 350V050 2500 -RADZ BR BKN003 17/16 Q1013
JAI VIJP Jaipur, IN Jaipur International Airport 6 1.55 31/19 29.56 VIJP 171830Z 03006KT 2500 HZ SCT030 SCT100 31/19 Q1001 NOSIG
DIA OTBD Doha, QA Doha International Airport 14 1.55 37/11 29.50 OTBD 171830Z 31014KT 2500 DRDU NSC 37/11 Q0999 NOSIG
VERP 13 1.55 25/24 29.62 VERP 171800Z 23013KT 2500 -TSRA HZ SCT010 SCT020 FEW030CB OVC080 25/24 Q1003 NOSIG
GAY VEGY IN Gaya Airport 0 1.55 26/25 29.50 VEGY 171800Z 00000KT 2500 BR SCT018 BKN100 26/25 Q0999
VEBN 6 1.55 25/24 29.47 VEBN 171800Z 03006KT 2500 BR SCT020 BKN100 25/24 Q0998 NOSIG